sensor_id;sensor_type;location;lat;lon;timestamp;P1;durP1;ratioP1;P2;durP2;ratioP2
67278;SDS011;54193;53.746;10.058;2022-09-09T00:07:59;84.68;;;25.38;;
67278;SDS011;54193;53.746;10.058;2022-09-09T00:10:48;90.07;;;25.27;;
67278;SDS011;54193;53.746;10.058;2022-09-09T00:13:46;85.13;;;25.23;;
67278;SDS011;54193;53.746;10.058;2022-09-09T00:16:36;83.68;;;24.25;;
67278;SDS011;54193;53.746;10.058;2022-09-09T00:22:53;80.03;;;23.80;;
67278;SDS011;54193;53.746;10.058;2022-09-09T00:25:59;92.13;;;25.45;;
67278;SDS011;54193;53.746;10.058;2022-09-09T00:31:57;80.97;;;23.55;;
67278;SDS011;54193;53.746;10.058;2022-09-09T00:34:51;84.93;;;23.38;;
67278;SDS011;54193;53.746;10.058;2022-09-09T00:37:40;86.85;;;25.02;;
67278;SDS011;54193;53.746;10.058;2022-09-09T00:40:34;85.35;;;25.88;;
67278;SDS011;54193;53.746;10.058;2022-09-09T00:43:30;85.97;;;25.43;;
67278;SDS011;54193;53.746;10.058;2022-09-09T00:46:23;90.22;;;24.95;;
67278;SDS011;54193;53.746;10.058;2022-09-09T00:49:29;91.25;;;24.65;;
67278;SDS011;54193;53.746;10.058;2022-09-09T00:52:49;100.80;;;24.55;;
67278;SDS011;54193;53.746;10.058;2022-09-09T00:56:13;98.85;;;25.80;;
67278;SDS011;54193;53.746;10.058;2022-09-09T00:59:07;97.10;;;24.63;;
67278;SDS011;54193;53.746;10.058;2022-09-09T01:02:09;103.38;;;24.15;;
67278;SDS011;54193;53.746;10.058;2022-09-09T01:05:10;105.63;;;25.38;;
67278;SDS011;54193;53.746;10.058;2022-09-09T01:08:02;101.75;;;24.45;;
67278;SDS011;54193;53.746;10.058;2022-09-09T01:10:55;103.15;;;26.17;;
67278;SDS011;54193;53.746;10.058;2022-09-09T01:13:43;99.37;;;22.57;;
67278;SDS011;54193;53.746;10.058;2022-09-09T01:16:33;101.43;;;23.48;;
67278;SDS011;54193;53.746;10.058;2022-09-09T01:19:24;106.82;;;23.05;;
67278;SDS011;54193;53.746;10.058;2022-09-09T01:25:29;116.32;;;23.48;;
67278;SDS011;54193;53.746;10.058;2022-09-09T01:28:19;107.10;;;23.23;;
67278;SDS011;54193;53.746;10.058;2022-09-09T01:31:11;123.25;;;24.88;;
67278;SDS011;54193;53.746;10.058;2022-09-09T01:34:00;113.75;;;24.17;;
67278;SDS011;54193;53.746;10.058;2022-09-09T01:36:47;134.38;;;24.52;;
67278;SDS011;54193;53.746;10.058;2022-09-09T01:39:38;109.30;;;25.38;;
67278;SDS011;54193;53.746;10.058;2022-09-09T01:42:26;101.87;;;23.57;;
67278;SDS011;54193;53.746;10.058;2022-09-09T01:45:11;120.10;;;24.90;;
67278;SDS011;54193;53.746;10.058;2022-09-09T01:47:57;111.57;;;24.23;;
67278;SDS011;54193;53.746;10.058;2022-09-09T01:50:43;112.43;;;23.92;;
67278;SDS011;54193;53.746;10.058;2022-09-09T01:53:29;123.10;;;24.63;;
67278;SDS011;54193;53.746;10.058;2022-09-09T02:02:32;110.72;;;23.35;;
67278;SDS011;54193;53.746;10.058;2022-09-09T02:08:33;112.10;;;23.52;;
67278;SDS011;54193;53.746;10.058;2022-09-09T02:11:29;114.47;;;24.00;;
67278;SDS011;54193;53.746;10.058;2022-09-09T02:14:22;107.47;;;24.95;;
67278;SDS011;54193;53.746;10.058;2022-09-09T02:17:14;107.80;;;24.95;;
67278;SDS011;54193;53.746;10.058;2022-09-09T02:20:10;142.43;;;25.90;;
67278;SDS011;54193;53.746;10.058;2022-09-09T02:22:58;112.20;;;24.65;;
67278;SDS011;54193;53.746;10.058;2022-09-09T02:25:44;115.10;;;25.37;;
67278;SDS011;54193;53.746;10.058;2022-09-09T02:28:31;110.97;;;25.17;;
67278;SDS011;54193;53.746;10.058;2022-09-09T02:31:20;107.93;;;24.70;;
67278;SDS011;54193;53.746;10.058;2022-09-09T02:34:09;105.60;;;23.17;;
67278;SDS011;54193;53.746;10.058;2022-09-09T02:36:57;108.90;;;24.48;;
67278;SDS011;54193;53.746;10.058;2022-09-09T02:39:46;115.73;;;25.10;;
67278;SDS011;54193;53.746;10.058;2022-09-09T02:42:32;106.85;;;23.77;;
67278;SDS011;54193;53.746;10.058;2022-09-09T02:45:24;107.72;;;23.08;;
67278;SDS011;54193;53.746;10.058;2022-09-09T02:54:45;97.97;;;21.43;;
67278;SDS011;54193;53.746;10.058;2022-09-09T02:57:33;95.32;;;21.55;;
67278;SDS011;54193;53.746;10.058;2022-09-09T03:00:24;94.63;;;23.02;;
67278;SDS011;54193;53.746;10.058;2022-09-09T03:03:13;97.05;;;21.38;;
67278;SDS011;54193;53.746;10.058;2022-09-09T03:06:01;89.97;;;21.10;;
67278;SDS011;54193;53.746;10.058;2022-09-09T03:08:46;86.47;;;21.43;;
67278;SDS011;54193;53.746;10.058;2022-09-09T03:11:34;87.35;;;20.58;;
67278;SDS011;54193;53.746;10.058;2022-09-09T03:14:20;77.80;;;18.13;;
67278;SDS011;54193;53.746;10.058;2022-09-09T03:17:09;80.30;;;19.35;;
67278;SDS011;54193;53.746;10.058;2022-09-09T03:19:55;82.97;;;19.02;;
67278;SDS011;54193;53.746;10.058;2022-09-09T03:22:41;84.87;;;21.30;;
67278;SDS011;54193;53.746;10.058;2022-09-09T03:25:26;81.88;;;19.13;;
67278;SDS011;54193;53.746;10.058;2022-09-09T03:28:14;87.70;;;21.58;;
67278;SDS011;54193;53.746;10.058;2022-09-09T03:31:01;87.25;;;21.02;;
67278;SDS011;54193;53.746;10.058;2022-09-09T03:33:47;87.88;;;20.38;;
67278;SDS011;54193;53.746;10.058;2022-09-09T03:36:33;86.73;;;20.60;;
67278;SDS011;54193;53.746;10.058;2022-09-09T03:39:19;88.90;;;21.35;;
67278;SDS011;54193;53.746;10.058;2022-09-09T03:42:04;90.13;;;20.95;;
67278;SDS011;54193;53.746;10.058;2022-09-09T03:44:50;84.50;;;19.38;;
67278;SDS011;54193;53.746;10.058;2022-09-09T03:47:36;91.15;;;21.85;;
67278;SDS011;54193;53.746;10.058;2022-09-09T03:50:22;91.93;;;21.63;;
67278;SDS011;54193;53.746;10.058;2022-09-09T03:53:08;93.50;;;22.30;;
67278;SDS011;54193;53.746;10.058;2022-09-09T03:55:55;84.13;;;20.70;;
67278;SDS011;54193;53.746;10.058;2022-09-09T03:58:41;91.00;;;21.92;;
67278;SDS011;54193;53.746;10.058;2022-09-09T04:01:27;92.28;;;22.00;;
67278;SDS011;54193;53.746;10.058;2022-09-09T04:04:13;89.83;;;20.93;;
67278;SDS011;54193;53.746;10.058;2022-09-09T04:06:59;88.20;;;22.38;;
67278;SDS011;54193;53.746;10.058;2022-09-09T04:09:44;88.97;;;21.45;;
67278;SDS011;54193;53.746;10.058;2022-09-09T04:12:31;93.07;;;22.67;;
67278;SDS011;54193;53.746;10.058;2022-09-09T04:15:17;89.63;;;21.25;;
67278;SDS011;54193;53.746;10.058;2022-09-09T04:18:03;91.80;;;21.53;;
67278;SDS011;54193;53.746;10.058;2022-09-09T04:20:49;97.38;;;22.25;;
67278;SDS011;54193;53.746;10.058;2022-09-09T04:23:36;93.13;;;22.77;;
67278;SDS011;54193;53.746;10.058;2022-09-09T04:26:22;89.75;;;22.35;;
67278;SDS011;54193;53.746;10.058;2022-09-09T04:29:07;88.55;;;22.25;;
67278;SDS011;54193;53.746;10.058;2022-09-09T04:31:53;94.60;;;22.90;;
67278;SDS011;54193;53.746;10.058;2022-09-09T04:34:39;90.35;;;21.83;;
67278;SDS011;54193;53.746;10.058;2022-09-09T04:37:26;95.28;;;23.95;;
67278;SDS011;54193;53.746;10.058;2022-09-09T04:40:12;89.35;;;22.45;;
67278;SDS011;54193;53.746;10.058;2022-09-09T04:42:58;50.33;;;14.25;;
67278;SDS011;54193;53.746;10.058;2022-09-09T04:45:46;85.67;;;21.50;;
67278;SDS011;54193;53.746;10.058;2022-09-09T04:48:33;86.50;;;22.02;;
67278;SDS011;54193;53.746;10.058;2022-09-09T04:51:19;83.72;;;21.85;;
67278;SDS011;54193;53.746;10.058;2022-09-09T04:54:05;88.05;;;22.08;;
67278;SDS011;54193;53.746;10.058;2022-09-09T04:56:51;77.47;;;19.95;;
67278;SDS011;54193;53.746;10.058;2022-09-09T04:59:36;85.10;;;22.00;;
67278;SDS011;54193;53.746;10.058;2022-09-09T05:02:22;79.25;;;20.55;;
67278;SDS011;54193;53.746;10.058;2022-09-09T05:05:08;69.30;;;18.65;;
67278;SDS011;54193;53.746;10.058;2022-09-09T05:08:00;85.03;;;21.02;;
67278;SDS011;54193;53.746;10.058;2022-09-09T05:10:49;77.85;;;21.85;;
67278;SDS011;54193;53.746;10.058;2022-09-09T05:13:35;75.77;;;21.77;;
67278;SDS011;54193;53.746;10.058;2022-09-09T05:16:21;79.88;;;21.80;;
67278;SDS011;54193;53.746;10.058;2022-09-09T05:19:09;70.03;;;20.33;;
67278;SDS011;54193;53.746;10.058;2022-09-09T05:21:56;76.78;;;20.15;;
67278;SDS011;54193;53.746;10.058;2022-09-09T05:24:42;74.60;;;20.58;;
67278;SDS011;54193;53.746;10.058;2022-09-09T05:27:29;76.13;;;20.67;;
67278;SDS011;54193;53.746;10.058;2022-09-09T05:30:16;69.47;;;19.67;;
67278;SDS011;54193;53.746;10.058;2022-09-09T05:33:04;68.80;;;19.95;;
67278;SDS011;54193;53.746;10.058;2022-09-09T05:35:54;60.63;;;19.08;;
67278;SDS011;54193;53.746;10.058;2022-09-09T05:38:48;62.63;;;19.48;;
67278;SDS011;54193;53.746;10.058;2022-09-09T05:41:35;53.20;;;17.73;;
67278;SDS011;54193;53.746;10.058;2022-09-09T05:44:21;53.60;;;18.13;;
67278;SDS011;54193;53.746;10.058;2022-09-09T05:47:09;56.90;;;18.73;;
67278;SDS011;54193;53.746;10.058;2022-09-09T05:49:54;54.85;;;19.20;;
67278;SDS011;54193;53.746;10.058;2022-09-09T05:52:40;52.05;;;18.27;;
67278;SDS011;54193;53.746;10.058;2022-09-09T05:55:26;53.00;;;18.67;;
67278;SDS011;54193;53.746;10.058;2022-09-09T05:58:11;50.05;;;16.95;;
67278;SDS011;54193;53.746;10.058;2022-09-09T06:01:01;46.17;;;16.38;;
67278;SDS011;54193;53.746;10.058;2022-09-09T06:03:49;47.92;;;16.45;;
67278;SDS011;54193;53.746;10.058;2022-09-09T06:06:36;47.47;;;16.50;;
67278;SDS011;54193;53.746;10.058;2022-09-09T06:09:24;42.43;;;16.57;;
67278;SDS011;54193;53.746;10.058;2022-09-09T06:12:10;40.38;;;14.48;;
67278;SDS011;54193;53.746;10.058;2022-09-09T06:14:56;35.77;;;13.37;;
67278;SDS011;54193;53.746;10.058;2022-09-09T06:17:41;37.28;;;14.00;;
67278;SDS011;54193;53.746;10.058;2022-09-09T06:20:27;36.17;;;14.30;;
67278;SDS011;54193;53.746;10.058;2022-09-09T06:23:15;34.17;;;14.43;;
67278;SDS011;54193;53.746;10.058;2022-09-09T06:28:47;32.47;;;13.73;;
67278;SDS011;54193;53.746;10.058;2022-09-09T06:31:34;35.50;;;13.75;;
67278;SDS011;54193;53.746;10.058;2022-09-09T06:34:22;32.63;;;13.52;;
67278;SDS011;54193;53.746;10.058;2022-09-09T06:37:08;34.78;;;13.38;;
67278;SDS011;54193;53.746;10.058;2022-09-09T06:39:53;29.80;;;12.48;;
67278;SDS011;54193;53.746;10.058;2022-09-09T06:42:40;31.40;;;13.10;;
67278;SDS011;54193;53.746;10.058;2022-09-09T06:45:25;30.35;;;13.15;;
67278;SDS011;54193;53.746;10.058;2022-09-09T06:48:11;30.10;;;12.32;;
67278;SDS011;54193;53.746;10.058;2022-09-09T06:51:07;32.22;;;13.82;;
67278;SDS011;54193;53.746;10.058;2022-09-09T06:54:01;28.55;;;12.30;;
67278;SDS011;54193;53.746;10.058;2022-09-09T06:56:47;29.83;;;12.77;;
67278;SDS011;54193;53.746;10.058;2022-09-09T06:59:35;26.95;;;12.15;;
67278;SDS011;54193;53.746;10.058;2022-09-09T07:02:20;26.85;;;12.23;;
67278;SDS011;54193;53.746;10.058;2022-09-09T07:05:07;29.23;;;12.13;;
67278;SDS011;54193;53.746;10.058;2022-09-09T07:07:53;25.38;;;11.32;;
67278;SDS011;54193;53.746;10.058;2022-09-09T07:10:39;23.17;;;11.30;;
67278;SDS011;54193;53.746;10.058;2022-09-09T07:13:25;25.30;;;11.43;;
67278;SDS011;54193;53.746;10.058;2022-09-09T07:16:12;25.10;;;11.15;;
67278;SDS011;54193;53.746;10.058;2022-09-09T07:19:00;27.60;;;10.70;;
67278;SDS011;54193;53.746;10.058;2022-09-09T07:21:47;20.55;;;9.07;;
67278;SDS011;54193;53.746;10.058;2022-09-09T07:24:33;18.80;;;9.60;;
67278;SDS011;54193;53.746;10.058;2022-09-09T07:27:19;16.35;;;8.70;;
67278;SDS011;54193;53.746;10.058;2022-09-09T07:30:04;13.27;;;7.78;;
67278;SDS011;54193;53.746;10.058;2022-09-09T07:32:52;10.98;;;6.55;;
67278;SDS011;54193;53.746;10.058;2022-09-09T07:35:38;10.93;;;6.28;;
67278;SDS011;54193;53.746;10.058;2022-09-09T07:38:23;13.33;;;6.53;;
67278;SDS011;54193;53.746;10.058;2022-09-09T07:41:10;13.32;;;6.90;;
67278;SDS011;54193;53.746;10.058;2022-09-09T07:44:07;13.18;;;6.40;;
67278;SDS011;54193;53.746;10.058;2022-09-09T07:46:56;12.65;;;6.72;;
67278;SDS011;54193;53.746;10.058;2022-09-09T07:49:41;14.32;;;7.00;;
67278;SDS011;54193;53.746;10.058;2022-09-09T07:52:27;11.10;;;5.97;;
67278;SDS011;54193;53.746;10.058;2022-09-09T07:55:12;11.95;;;7.30;;
67278;SDS011;54193;53.746;10.058;2022-09-09T07:57:59;11.85;;;6.93;;
67278;SDS011;54193;53.746;10.058;2022-09-09T08:00:45;14.52;;;7.15;;
67278;SDS011;54193;53.746;10.058;2022-09-09T08:03:31;10.63;;;6.50;;
67278;SDS011;54193;53.746;10.058;2022-09-09T08:06:16;12.77;;;7.20;;
67278;SDS011;54193;53.746;10.058;2022-09-09T08:09:02;11.15;;;6.82;;
67278;SDS011;54193;53.746;10.058;2022-09-09T08:11:49;12.35;;;6.20;;
67278;SDS011;54193;53.746;10.058;2022-09-09T08:14:34;10.70;;;5.70;;
67278;SDS011;54193;53.746;10.058;2022-09-09T08:17:20;9.20;;;5.60;;
67278;SDS011;54193;53.746;10.058;2022-09-09T08:20:06;13.07;;;6.43;;
67278;SDS011;54193;53.746;10.058;2022-09-09T08:22:52;8.93;;;5.65;;
67278;SDS011;54193;53.746;10.058;2022-09-09T08:25:37;10.75;;;4.53;;
67278;SDS011;54193;53.746;10.058;2022-09-09T08:28:23;10.00;;;4.40;;
67278;SDS011;54193;53.746;10.058;2022-09-09T08:31:12;8.68;;;4.18;;
67278;SDS011;54193;53.746;10.058;2022-09-09T08:34:01;10.07;;;4.43;;
67278;SDS011;54193;53.746;10.058;2022-09-09T08:36:49;8.77;;;4.70;;
67278;SDS011;54193;53.746;10.058;2022-09-09T08:39:35;9.50;;;4.80;;
67278;SDS011;54193;53.746;10.058;2022-09-09T08:42:35;8.68;;;4.72;;
67278;SDS011;54193;53.746;10.058;2022-09-09T08:45:31;9.98;;;4.30;;
67278;SDS011;54193;53.746;10.058;2022-09-09T08:51:37;6.47;;;3.67;;
67278;SDS011;54193;53.746;10.058;2022-09-09T08:54:23;7.25;;;3.42;;
67278;SDS011;54193;53.746;10.058;2022-09-09T08:57:21;6.53;;;2.83;;
67278;SDS011;54193;53.746;10.058;2022-09-09T09:00:13;7.82;;;3.08;;
67278;SDS011;54193;53.746;10.058;2022-09-09T09:03:06;6.70;;;3.53;;
67278;SDS011;54193;53.746;10.058;2022-09-09T09:12:18;5.60;;;3.13;;
67278;SDS011;54193;53.746;10.058;2022-09-09T09:15:19;6.25;;;3.28;;
67278;SDS011;54193;53.746;10.058;2022-09-09T09:18:08;6.90;;;3.07;;
67278;SDS011;54193;53.746;10.058;2022-09-09T09:21:10;5.93;;;2.80;;
67278;SDS011;54193;53.746;10.058;2022-09-09T09:24:00;5.78;;;2.78;;
67278;SDS011;54193;53.746;10.058;2022-09-09T09:26:46;5.88;;;2.88;;
67278;SDS011;54193;53.746;10.058;2022-09-09T09:29:32;5.00;;;2.40;;
67278;SDS011;54193;53.746;10.058;2022-09-09T09:32:20;4.37;;;2.50;;
67278;SDS011;54193;53.746;10.058;2022-09-09T09:35:10;5.18;;;2.42;;
67278;SDS011;54193;53.746;10.058;2022-09-09T09:37:58;4.15;;;2.17;;
67278;SDS011;54193;53.746;10.058;2022-09-09T09:40:50;5.10;;;2.08;;
67278;SDS011;54193;53.746;10.058;2022-09-09T09:43:37;6.05;;;2.00;;
67278;SDS011;54193;53.746;10.058;2022-09-09T09:46:26;4.47;;;2.10;;
67278;SDS011;54193;53.746;10.058;2022-09-09T09:49:13;3.65;;;2.08;;
67278;SDS011;54193;53.746;10.058;2022-09-09T09:52:04;4.13;;;1.90;;
67278;SDS011;54193;53.746;10.058;2022-09-09T09:54:52;5.32;;;1.95;;
67278;SDS011;54193;53.746;10.058;2022-09-09T09:57:39;4.68;;;2.00;;
67278;SDS011;54193;53.746;10.058;2022-09-09T10:00:25;5.27;;;2.07;;
67278;SDS011;54193;53.746;10.058;2022-09-09T10:03:24;5.15;;;2.80;;
67278;SDS011;54193;53.746;10.058;2022-09-09T10:06:10;6.20;;;3.10;;
67278;SDS011;54193;53.746;10.058;2022-09-09T10:08:55;7.10;;;3.40;;
67278;SDS011;54193;53.746;10.058;2022-09-09T10:11:46;6.35;;;3.50;;
67278;SDS011;54193;53.746;10.058;2022-09-09T10:14:55;6.73;;;3.30;;
67278;SDS011;54193;53.746;10.058;2022-09-09T10:21:20;6.82;;;4.03;;
67278;SDS011;54193;53.746;10.058;2022-09-09T10:31:06;7.23;;;3.97;;
67278;SDS011;54193;53.746;10.058;2022-09-09T10:34:18;6.60;;;3.75;;
67278;SDS011;54193;53.746;10.058;2022-09-09T10:46:27;7.87;;;3.70;;
67278;SDS011;54193;53.746;10.058;2022-09-09T10:56:09;7.50;;;2.88;;
67278;SDS011;54193;53.746;10.058;2022-09-09T10:59:02;5.35;;;3.22;;
67278;SDS011;54193;53.746;10.058;2022-09-09T11:05:18;6.22;;;2.65;;
67278;SDS011;54193;53.746;10.058;2022-09-09T11:08:09;6.78;;;2.08;;
67278;SDS011;54193;53.746;10.058;2022-09-09T11:11:04;4.95;;;2.20;;
67278;SDS011;54193;53.746;10.058;2022-09-09T11:16:50;4.10;;;2.10;;
67278;SDS011;54193;53.746;10.058;2022-09-09T11:19:40;3.60;;;1.70;;
67278;SDS011;54193;53.746;10.058;2022-09-09T11:22:39;4.25;;;1.70;;
67278;SDS011;54193;53.746;10.058;2022-09-09T11:25:33;4.93;;;1.90;;
67278;SDS011;54193;53.746;10.058;2022-09-09T11:34:24;4.95;;;2.20;;
67278;SDS011;54193;53.746;10.058;2022-09-09T11:40:23;4.00;;;2.17;;
67278;SDS011;54193;53.746;10.058;2022-09-09T11:43:30;5.25;;;2.80;;
67278;SDS011;54193;53.746;10.058;2022-09-09T11:46:22;3.47;;;2.47;;
67278;SDS011;54193;53.746;10.058;2022-09-09T11:49:29;5.63;;;2.92;;
67278;SDS011;54193;53.746;10.058;2022-09-09T11:52:43;4.30;;;2.70;;
67278;SDS011;54193;53.746;10.058;2022-09-09T11:55:37;5.15;;;3.08;;
67278;SDS011;54193;53.746;10.058;2022-09-09T11:58:22;6.18;;;2.50;;
67278;SDS011;54193;53.746;10.058;2022-09-09T12:04:26;4.18;;;2.30;;
67278;SDS011;54193;53.746;10.058;2022-09-09T12:07:27;2.97;;;1.63;;
67278;SDS011;54193;53.746;10.058;2022-09-09T12:10:27;3.85;;;1.70;;
67278;SDS011;54193;53.746;10.058;2022-09-09T12:13:19;4.70;;;2.10;;
67278;SDS011;54193;53.746;10.058;2022-09-09T12:16:26;5.03;;;2.40;;
67278;SDS011;54193;53.746;10.058;2022-09-09T12:19:21;3.70;;;2.40;;
67278;SDS011;54193;53.746;10.058;2022-09-09T12:25:07;4.53;;;2.10;;
67278;SDS011;54193;53.746;10.058;2022-09-09T12:28:05;6.13;;;2.35;;
67278;SDS011;54193;53.746;10.058;2022-09-09T12:31:05;6.17;;;2.60;;
67278;SDS011;54193;53.746;10.058;2022-09-09T12:34:02;8.05;;;2.38;;
67278;SDS011;54193;53.746;10.058;2022-09-09T12:37:13;4.03;;;2.50;;
67278;SDS011;54193;53.746;10.058;2022-09-09T12:40:04;5.30;;;2.50;;
67278;SDS011;54193;53.746;10.058;2022-09-09T12:43:21;5.05;;;2.40;;
67278;SDS011;54193;53.746;10.058;2022-09-09T12:46:10;4.37;;;1.93;;
67278;SDS011;54193;53.746;10.058;2022-09-09T12:49:32;4.40;;;1.98;;
67278;SDS011;54193;53.746;10.058;2022-09-09T12:52:26;4.45;;;2.40;;
67278;SDS011;54193;53.746;10.058;2022-09-09T12:55:20;4.07;;;1.77;;
67278;SDS011;54193;53.746;10.058;2022-09-09T12:58:07;6.22;;;1.92;;
67278;SDS011;54193;53.746;10.058;2022-09-09T13:00:59;5.57;;;2.40;;
67278;SDS011;54193;53.746;10.058;2022-09-09T13:03:45;4.15;;;2.10;;
67278;SDS011;54193;53.746;10.058;2022-09-09T13:06:32;5.60;;;2.53;;
67278;SDS011;54193;53.746;10.058;2022-09-09T13:09:18;6.22;;;2.50;;
67278;SDS011;54193;53.746;10.058;2022-09-09T13:12:05;4.63;;;2.17;;
67278;SDS011;54193;53.746;10.058;2022-09-09T13:14:59;4.43;;;2.53;;
67278;SDS011;54193;53.746;10.058;2022-09-09T13:17:49;3.80;;;2.30;;
67278;SDS011;54193;53.746;10.058;2022-09-09T13:20:36;4.03;;;1.90;;
67278;SDS011;54193;53.746;10.058;2022-09-09T13:23:30;3.83;;;2.03;;
67278;SDS011;54193;53.746;10.058;2022-09-09T13:26:24;5.25;;;2.80;;
67278;SDS011;54193;53.746;10.058;2022-09-09T13:29:18;5.60;;;3.03;;
67278;SDS011;54193;53.746;10.058;2022-09-09T13:32:15;5.53;;;3.00;;
67278;SDS011;54193;53.746;10.058;2022-09-09T13:35:02;5.35;;;3.15;;
67278;SDS011;54193;53.746;10.058;2022-09-09T13:37:48;5.65;;;3.45;;
67278;SDS011;54193;53.746;10.058;2022-09-09T13:40:34;6.25;;;2.92;;
67278;SDS011;54193;53.746;10.058;2022-09-09T13:43:21;6.50;;;3.60;;
67278;SDS011;54193;53.746;10.058;2022-09-09T13:52:05;10.02;;;4.40;;
67278;SDS011;54193;53.746;10.058;2022-09-09T13:54:54;9.00;;;4.47;;
67278;SDS011;54193;53.746;10.058;2022-09-09T13:57:49;7.57;;;4.77;;
67278;SDS011;54193;53.746;10.058;2022-09-09T14:00:39;8.63;;;4.80;;
67278;SDS011;54193;53.746;10.058;2022-09-09T14:03:25;8.05;;;4.80;;
67278;SDS011;54193;53.746;10.058;2022-09-09T14:06:10;8.98;;;5.60;;
67278;SDS011;54193;53.746;10.058;2022-09-09T14:08:56;7.75;;;5.30;;
67278;SDS011;54193;53.746;10.058;2022-09-09T14:11:42;9.17;;;5.47;;
67278;SDS011;54193;53.746;10.058;2022-09-09T14:14:28;9.35;;;6.10;;
67278;SDS011;54193;53.746;10.058;2022-09-09T14:17:14;11.20;;;6.50;;
67278;SDS011;54193;53.746;10.058;2022-09-09T14:20:00;12.55;;;6.88;;
67278;SDS011;54193;53.746;10.058;2022-09-09T14:23:01;12.27;;;7.10;;
67278;SDS011;54193;53.746;10.058;2022-09-09T14:25:46;13.48;;;7.43;;
67278;SDS011;54193;53.746;10.058;2022-09-09T14:28:33;12.45;;;7.57;;
67278;SDS011;54193;53.746;10.058;2022-09-09T14:31:20;12.63;;;7.57;;
67278;SDS011;54193;53.746;10.058;2022-09-09T14:34:06;15.33;;;8.37;;
67278;SDS011;54193;53.746;10.058;2022-09-09T14:36:51;11.50;;;7.45;;
67278;SDS011;54193;53.746;10.058;2022-09-09T14:39:37;13.35;;;7.30;;
67278;SDS011;54193;53.746;10.058;2022-09-09T14:42:23;9.82;;;5.75;;
67278;SDS011;54193;53.746;10.058;2022-09-09T14:45:10;11.85;;;6.35;;
67278;SDS011;54193;53.746;10.058;2022-09-09T14:47:56;10.37;;;6.10;;
67278;SDS011;54193;53.746;10.058;2022-09-09T14:50:42;9.45;;;6.18;;
67278;SDS011;54193;53.746;10.058;2022-09-09T14:53:28;10.73;;;6.47;;
67278;SDS011;54193;53.746;10.058;2022-09-09T14:56:18;10.82;;;5.97;;
67278;SDS011;54193;53.746;10.058;2022-09-09T14:59:06;10.10;;;5.93;;
67278;SDS011;54193;53.746;10.058;2022-09-09T15:01:52;8.73;;;4.13;;
67278;SDS011;54193;53.746;10.058;2022-09-09T15:04:38;13.13;;;5.22;;
67278;SDS011;54193;53.746;10.058;2022-09-09T15:07:24;12.52;;;5.75;;
67278;SDS011;54193;53.746;10.058;2022-09-09T15:10:10;10.45;;;6.30;;
67278;SDS011;54193;53.746;10.058;2022-09-09T15:12:56;10.40;;;5.93;;
67278;SDS011;54193;53.746;10.058;2022-09-09T15:15:42;9.77;;;5.00;;
67278;SDS011;54193;53.746;10.058;2022-09-09T15:18:29;9.20;;;5.93;;
67278;SDS011;54193;53.746;10.058;2022-09-09T15:21:16;9.40;;;5.43;;
67278;SDS011;54193;53.746;10.058;2022-09-09T15:24:04;10.07;;;5.38;;
67278;SDS011;54193;53.746;10.058;2022-09-09T15:26:53;9.00;;;5.22;;
67278;SDS011;54193;53.746;10.058;2022-09-09T15:29:39;9.27;;;4.53;;
67278;SDS011;54193;53.746;10.058;2022-09-09T15:32:29;9.07;;;4.88;;
67278;SDS011;54193;53.746;10.058;2022-09-09T15:35:15;8.45;;;4.78;;
67278;SDS011;54193;53.746;10.058;2022-09-09T15:38:04;8.13;;;5.00;;
67278;SDS011;54193;53.746;10.058;2022-09-09T15:40:53;7.88;;;4.80;;
67278;SDS011;54193;53.746;10.058;2022-09-09T15:43:45;8.07;;;5.10;;
67278;SDS011;54193;53.746;10.058;2022-09-09T15:46:33;11.00;;;5.68;;
67278;SDS011;54193;53.746;10.058;2022-09-09T15:49:45;7.65;;;4.60;;
67278;SDS011;54193;53.746;10.058;2022-09-09T15:52:31;7.35;;;4.50;;
67278;SDS011;54193;53.746;10.058;2022-09-09T15:55:18;8.00;;;4.40;;
67278;SDS011;54193;53.746;10.058;2022-09-09T15:58:05;7.70;;;4.17;;
67278;SDS011;54193;53.746;10.058;2022-09-09T16:00:51;6.80;;;3.30;;
67278;SDS011;54193;53.746;10.058;2022-09-09T16:03:37;5.57;;;3.17;;
67278;SDS011;54193;53.746;10.058;2022-09-09T16:06:24;7.70;;;3.50;;
67278;SDS011;54193;53.746;10.058;2022-09-09T16:09:13;4.68;;;2.83;;
67278;SDS011;54193;53.746;10.058;2022-09-09T16:11:59;4.43;;;2.40;;
67278;SDS011;54193;53.746;10.058;2022-09-09T16:14:46;4.80;;;2.63;;
67278;SDS011;54193;53.746;10.058;2022-09-09T16:17:32;5.70;;;2.80;;
67278;SDS011;54193;53.746;10.058;2022-09-09T16:20:22;5.88;;;2.90;;
67278;SDS011;54193;53.746;10.058;2022-09-09T16:23:08;5.45;;;2.63;;
67278;SDS011;54193;53.746;10.058;2022-09-09T16:25:54;6.00;;;2.70;;
67278;SDS011;54193;53.746;10.058;2022-09-09T16:28:40;5.20;;;2.78;;
67278;SDS011;54193;53.746;10.058;2022-09-09T16:31:26;5.00;;;2.80;;
67278;SDS011;54193;53.746;10.058;2022-09-09T16:34:14;5.55;;;3.00;;
67278;SDS011;54193;53.746;10.058;2022-09-09T16:37:00;4.68;;;2.60;;
67278;SDS011;54193;53.746;10.058;2022-09-09T16:39:47;6.03;;;2.90;;
67278;SDS011;54193;53.746;10.058;2022-09-09T16:42:32;5.82;;;3.00;;
67278;SDS011;54193;53.746;10.058;2022-09-09T16:45:18;6.97;;;3.50;;
67278;SDS011;54193;53.746;10.058;2022-09-09T16:48:04;6.32;;;4.03;;
67278;SDS011;54193;53.746;10.058;2022-09-09T16:50:49;7.85;;;3.85;;
67278;SDS011;54193;53.746;10.058;2022-09-09T16:53:35;5.77;;;3.37;;
67278;SDS011;54193;53.746;10.058;2022-09-09T16:56:22;6.95;;;3.25;;
67278;SDS011;54193;53.746;10.058;2022-09-09T16:59:20;7.80;;;3.90;;
67278;SDS011;54193;53.746;10.058;2022-09-09T17:02:07;6.03;;;3.40;;
67278;SDS011;54193;53.746;10.058;2022-09-09T17:04:53;5.57;;;3.33;;
67278;SDS011;54193;53.746;10.058;2022-09-09T17:07:38;5.50;;;3.20;;
67278;SDS011;54193;53.746;10.058;2022-09-09T17:10:24;5.65;;;3.30;;
67278;SDS011;54193;53.746;10.058;2022-09-09T17:13:11;6.05;;;3.20;;
67278;SDS011;54193;53.746;10.058;2022-09-09T17:15:57;6.80;;;3.40;;
67278;SDS011;54193;53.746;10.058;2022-09-09T17:18:43;6.00;;;3.50;;
67278;SDS011;54193;53.746;10.058;2022-09-09T17:21:31;6.23;;;3.20;;
67278;SDS011;54193;53.746;10.058;2022-09-09T17:24:17;5.68;;;3.25;;
67278;SDS011;54193;53.746;10.058;2022-09-09T17:27:03;5.80;;;3.33;;
67278;SDS011;54193;53.746;10.058;2022-09-09T17:29:49;6.22;;;3.10;;
67278;SDS011;54193;53.746;10.058;2022-09-09T17:32:37;6.63;;;3.60;;
67278;SDS011;54193;53.746;10.058;2022-09-09T17:35:23;7.30;;;3.23;;
67278;SDS011;54193;53.746;10.058;2022-09-09T17:38:31;5.25;;;3.13;;
67278;SDS011;54193;53.746;10.058;2022-09-09T17:41:18;6.03;;;3.40;;
67278;SDS011;54193;53.746;10.058;2022-09-09T17:44:08;6.22;;;3.20;;
67278;SDS011;54193;53.746;10.058;2022-09-09T17:46:54;6.10;;;3.35;;
67278;SDS011;54193;53.746;10.058;2022-09-09T17:49:41;6.73;;;3.73;;
67278;SDS011;54193;53.746;10.058;2022-09-09T17:52:26;6.88;;;3.80;;
67278;SDS011;54193;53.746;10.058;2022-09-09T17:55:12;7.22;;;3.80;;
67278;SDS011;54193;53.746;10.058;2022-09-09T17:57:58;7.50;;;4.55;;
67278;SDS011;54193;53.746;10.058;2022-09-09T18:00:44;6.80;;;3.95;;
67278;SDS011;54193;53.746;10.058;2022-09-09T18:03:30;7.60;;;4.60;;
67278;SDS011;54193;53.746;10.058;2022-09-09T18:06:18;8.93;;;4.97;;
67278;SDS011;54193;53.746;10.058;2022-09-09T18:09:07;8.25;;;4.85;;